| time (UTC) | temp F | wind direction | speed knots | gust knots | rain 1hr in | rain 24hr in | rain mn in | humidity % | barometer mb |
| 20260503185204 | 71 | 266 | 7.8 | 13.9 | 0.00 | 0.00 | 0.00 | 38 | 1002.9 |
| 20260503184204 | 69 | 255 | 7.8 | 17.4 | 0.00 | 0.00 | 0.00 | 40 | 1003.0 |
| 20260503183704 | 68 | 232 | 8.7 | 17.4 | 0.00 | 0.00 | 0.00 | 40 | 1003.0 |
| 20260503183203 | 69 | 259 | 10.4 | 17.4 | 0.00 | 0.00 | 0.00 | 38 | 1003.2 |
| 20260503182703 | 69 | 260 | 9.6 | 18.2 | 0.00 | 0.00 | 0.00 | 38 | 1003.3 |
| 20260503182204 | 69 | 245 | 10.4 | 18.2 | 0.00 | 0.00 | 0.00 | 38 | 1003.3 |
| 20260503181203 | 69 | 218 | 7.8 | 15.6 | 0.00 | 0.00 | 0.00 | 39 | 1003.3 |
| 20260503180203 | 69 | 240 | 6.1 | 17.4 | 0.00 | 0.00 | 0.00 | 39 | 1003.4 |
| 20260503175704 | 68 | 207 | 10.4 | 17.4 | 0.00 | 0.00 | 0.00 | 39 | 1003.5 |
| 20260503175203 | 68 | 255 | 7.8 | 17.4 | 0.00 | 0.00 | 0.00 | 40 | 1003.5 |
| 20260503174703 | 68 | 243 | 9.6 | 17.4 | 0.00 | 0.00 | 0.00 | 39 | 1003.8 |
| 20260503174203 | 68 | 230 | 11.3 | 17.4 | 0.00 | 0.00 | 0.00 | 39 | 1003.8 |
| 20260503173203 | 67 | 206 | 7.0 | 17.4 | 0.00 | 0.00 | 0.00 | 40 | 1003.9 |
| 20260503172703 | 67 | 249 | 10.4 | 17.4 | 0.00 | 0.00 | 0.00 | 40 | 1004.0 |
| 20260503172203 | 67 | 251 | 10.4 | 18.2 | 0.00 | 0.00 | 0.00 | 38 | 1004.1 |
| 20260503171704 | 68 | 241 | 8.7 | 18.2 | 0.00 | 0.00 | 0.00 | 40 | 1004.1 |
| 20260503171204 | 68 | 240 | 8.7 | 17.4 | 0.00 | 0.00 | 0.00 | 39 | 1004.2 |
| 20260503170704 | 67 | 223 | 7.8 | 18.2 | 0.00 | 0.00 | 0.00 | 40 | 1004.2 |
| 20260503170204 | 68 | 225 | 10.4 | 18.2 | 0.00 | 0.00 | 0.00 | 39 | 1004.4 |
| 20260503160204 | 66 | 250 | 10.4 | 20.9 | 0.00 | 0.00 | 0.00 | 44 | 1004.7 |
| 20260503140204 | 56 | 217 | 6.1 | 13.0 | 0.00 | 0.00 | 0.00 | 56 | 1006.4 |
| 20260503120202 | 49 | 192 | 4.3 | 7.0 | 0.00 | 0.00 | 0.00 | 61 | 1006.9 |
| 20260503110702 | 48 | 180 | 4.3 | 7.8 | 0.00 | 0.00 | 0.00 | 60 | 1006.9 |
| 20260503110202 | 48 | 179 | 4.3 | 8.7 | 0.00 | 0.00 | 0.00 | 60 | 1007.0 |
| 20260503100203 | 50 | 184 | 3.5 | 7.8 | 0.00 | 0.00 | 0.00 | 60 | 1007.5 |
| 20260503090203 | 51 | 208 | 4.3 | 6.1 | 0.00 | 0.00 | 0.00 | 54 | 1008.4 |
| 20260503081203 | 52 | 235 | 6.1 | 11.3 | 0.00 | 0.00 | 0.00 | 53 | 1009.1 |
| 20260503080703 | 52 | 229 | 5.2 | 10.4 | 0.00 | 0.00 | 0.00 | 53 | 1009.0 |
| 20260503080203 | 52 | 234 | 6.1 | 11.3 | 0.00 | 0.00 | 0.00 | 54 | 1009.1 |
| 20260503072703 | 49 | 209 | 4.3 | 10.4 | 0.00 | 0.00 | 0.00 | 60 | 1009.2 |
| 20260503072203 | 49 | 212 | 2.6 | 7.0 | 0.00 | 0.00 | 0.00 | 60 | 1009.1 |
| 20260503071703 | 49 | 202 | 2.6 | 7.0 | 0.00 | 0.00 | 0.00 | 60 | 1009.2 |
| 20260503071203 | 49 | 204 | 2.6 | 7.0 | 0.00 | 0.00 | 0.00 | 60 | 1009.2 |
| 20260503070703 | 49 | 205 | 4.3 | 7.0 | 0.00 | 0.00 | 0.00 | 61 | 1009.3 |
| 20260503060203 | 48 | 186 | 3.5 | 5.2 | 0.00 | 0.00 | 0.00 | 61 | 1009.9 |
| 20260503054703 | 49 | 182 | 3.5 | 7.0 | 0.00 | 0.00 | 0.00 | 60 | 1010.1 |
| 20260503053703 | 49 | 193 | 2.6 | 5.2 | 0.00 | 0.00 | 0.00 | 60 | 1010.1 |
| 20260503052702 | 50 | 193 | 2.6 | 7.8 | 0.00 | 0.00 | 0.00 | 59 | 1010.2 |
| 20260503052203 | 50 | 182 | 4.3 | 7.8 | 0.00 | 0.00 | 0.00 | 59 | 1010.2 |
| 20260503051703 | 50 | 190 | 4.3 | 7.8 | 0.00 | 0.00 | 0.00 | 59 | 1010.2 |
| 20260503051203 | 50 | 193 | 4.3 | 7.8 | 0.00 | 0.00 | 0.00 | 58 | 1010.3 |
| 20260503050703 | 50 | 174 | 4.3 | 7.8 | 0.00 | 0.00 | 0.00 | 58 | 1010.2 |
| 20260503050203 | 50 | 184 | 4.3 | 7.0 | 0.00 | 0.00 | 0.00 | 58 | 1010.4 |
| 20260503045703 | 50 | 173 | 3.5 | 7.8 | 0.00 | 0.00 | 0.00 | 59 | 1010.5 |
| 20260503045203 | 50 | 181 | 3.5 | 7.8 | 0.00 | 0.00 | 0.00 | 59 | 1010.6 |
| 20260503044704 | 50 | 180 | 4.3 | 7.8 | 0.00 | 0.00 | 0.00 | 59 | 1010.5 |
| 20260503044203 | 50 | 177 | 3.5 | 7.8 | 0.00 | 0.00 | 0.00 | 59 | 1010.5 |
| 20260503043202 | 50 | 186 | 3.5 | 8.7 | 0.00 | 0.00 | 0.00 | 58 | 1010.7 |
| 20260503042703 | 50 | 173 | 4.3 | 7.8 | 0.00 | 0.00 | 0.00 | 57 | 1010.7 |
| 20260503041203 | 51 | 182 | 5.2 | 7.8 | 0.00 | 0.00 | 0.00 | 56 | 1011.0 |
| 20260503040203 | 51 | 198 | 2.6 | 6.1 | 0.00 | 0.00 | 0.00 | 54 | 1010.9 |
| 20260503035703 | 51 | 184 | 4.3 | 6.1 | 0.00 | 0.00 | 0.00 | 54 | 1011.0 |
| 20260503034704 | 51 | 191 | 2.6 | 7.0 | 0.00 | 0.00 | 0.00 | 53 | 1011.0 |
| 20260503034203 | 50 | 186 | 3.5 | 7.0 | 0.00 | 0.00 | 0.00 | 53 | 1011.2 |
| 20260503033703 | 50 | 159 | 3.5 | 7.0 | 0.00 | 0.00 | 0.00 | 53 | 1011.2 |
| 20260503033203 | 50 | 191 | 4.3 | 5.2 | 0.00 | 0.00 | 0.00 | 54 | 1011.3 |
| 20260503032703 | 50 | 201 | 2.6 | 5.2 | 0.00 | 0.00 | 0.00 | 53 | 1011.3 |
| 20260503032203 | 50 | 193 | 4.3 | 5.2 | 0.00 | 0.00 | 0.00 | 54 | 1011.4 |
| 20260503031703 | 49 | 187 | 2.6 | 5.2 | 0.00 | 0.00 | 0.00 | 55 | 1011.4 |
| 20260503031203 | 49 | 184 | 3.5 | 6.1 | 0.00 | 0.00 | 0.00 | 55 | 1011.5 |
| 20260503030703 | 49 | 188 | 2.6 | 6.1 | 0.00 | 0.00 | 0.00 | 56 | 1011.7 |
| 20260503025703 | 49 | 189 | 2.6 | 5.2 | 0.00 | 0.00 | 0.00 | 57 | 1011.8 |
| 20260503024202 | 49 | 199 | 2.6 | 4.3 | 0.00 | 0.00 | 0.00 | 56 | 1011.9 |
| 20260503023205 | 50 | 203 | 2.6 | 4.3 | 0.00 | 0.00 | 0.00 | 55 | 1011.8 |
| 20260503022702 | 50 | 203 | 2.6 | 7.0 | 0.00 | 0.00 | 0.00 | 55 | 1011.9 |
| 20260503022203 | 50 | 198 | 3.5 | 7.0 | 0.00 | 0.00 | 0.00 | 53 | 1011.9 |
| 20260503021203 | 51 | 210 | 2.6 | 2.6 | 0.00 | 0.00 | 0.00 | 51 | 1012.0 |
| 20260503020703 | 51 | 230 | 1.7 | 2.6 | 0.00 | 0.00 | 0.00 | 50 | 1012.0 |
| 20260503020203 | 51 | 230 | 1.7 | 4.3 | 0.00 | 0.00 | 0.00 | 49 | 1012.1 |
| 20260503015703 | 52 | 241 | 2.6 | 5.2 | 0.00 | 0.00 | 0.00 | 50 | 1012.1 |
| 20260503015203 | 52 | 230 | 1.7 | 5.2 | 0.00 | 0.00 | 0.00 | 48 | 1012.1 |
| 20260503014703 | 53 | 246 | 2.6 | 4.3 | 0.00 | 0.00 | 0.00 | 47 | 1012.1 |
| 20260503013703 | 54 | 220 | 2.6 | 5.2 | 0.00 | 0.00 | 0.00 | 45 | 1012.1 |
| 20260503013203 | 54 | 215 | 2.6 | 5.2 | 0.00 | 0.00 | 0.00 | 44 | 1012.0 |
| 20260503012703 | 55 | 232 | 1.7 | 5.2 | 0.00 | 0.00 | 0.00 | 42 | 1012.0 |
| 20260503012204 | 55 | 248 | 2.6 | 5.2 | 0.00 | 0.00 | 0.00 | 40 | 1012.0 |
| 20260503011703 | 56 | 249 | 2.6 | 6.1 | 0.00 | 0.00 | 0.00 | 38 | 1012.0 |
| 20260503011203 | 56 | 241 | 2.6 | 7.0 | 0.00 | 0.00 | 0.00 | 37 | 1012.0 |
| 20260503010703 | 56 | 254 | 3.5 | 7.0 | 0.00 | 0.00 | 0.00 | 37 | 1012.1 |
| 20260503010204 | 57 | 260 | 4.3 | 7.8 | 0.00 | 0.00 | 0.00 | 36 | 1012.0 |
| 20260503004703 | 57 | 254 | 3.5 | 10.4 | 0.00 | 0.00 | 0.00 | 35 | 1012.1 |
| 20260503004203 | 58 | 270 | 4.3 | 10.4 | 0.00 | 0.00 | 0.00 | 35 | 1012.1 |
| 20260503003703 | 58 | 273 | 5.2 | 10.4 | 0.00 | 0.00 | 0.00 | 33 | 1012.1 |
| 20260503003203 | 58 | 270 | 5.2 | 11.3 | 0.00 | 0.00 | 0.00 | 33 | 1012.2 |
| 20260503002703 | 58 | 267 | 5.2 | 11.3 | 0.00 | 0.00 | 0.00 | 33 | 1012.2 |
| 20260503002202 | 58 | 265 | 5.2 | 12.2 | 0.00 | 0.00 | 0.00 | 33 | 1012.2 |
| 20260503001704 | 59 | 267 | 6.1 | 12.2 | 0.00 | 0.00 | 0.00 | 32 | 1012.2 |
| 20260503001203 | 59 | 266 | 7.0 | 11.3 | 0.00 | 0.00 | 0.00 | 31 | 1012.2 |
| 20260503000702 | 59 | 275 | 7.0 | 12.2 | 0.00 | 0.00 | 0.00 | 31 | 1012.3 |
| 20260503000204 | 59 | 274 | 5.2 | 14.8 | 0.00 | 0.00 | 0.00 | 32 | 1012.3 |
| 20260502235203 | 60 | 284 | 7.8 | 13.0 | 0.00 | 0.00 | 0.00 | 31 | 1012.2 |
| 20260502233703 | 61 | 282 | 7.8 | 15.6 | 0.00 | 0.00 | 0.00 | 30 | 1012.2 |
| 20260502233203 | 61 | 290 | 3.5 | 11.3 | 0.00 | 0.00 | 0.00 | 31 | 1012.2 |
| 20260502232703 | 61 | 289 | 7.0 | 13.0 | 0.00 | 0.00 | 0.00 | 31 | 1012.3 |
| 20260502232203 | 61 | 271 | 7.0 | 17.4 | 0.00 | 0.00 | 0.00 | 31 | 1012.3 |
| 20260502231703 | 60 | 294 | 7.8 | 17.4 | 0.00 | 0.00 | 0.00 | 31 | 1012.4 |
| 20260502231203 | 61 | 259 | 7.0 | 13.9 | 0.00 | 0.00 | 0.00 | 30 | 1012.4 |
| 20260502230202 | 61 | 261 | 7.0 | 12.2 | 0.00 | 0.00 | 0.00 | 30 | 1012.6 |
| 20260502225703 | 61 | 279 | 7.8 | 12.2 | 0.00 | 0.00 | 0.00 | 30 | 1012.7 |
| 20260502224702 | 61 | 246 | 9.6 | 15.6 | 0.00 | 0.00 | 0.00 | 30 | 1013.0 |
| 20260502223703 | 61 | 271 | 10.4 | 17.4 | 0.00 | 0.00 | 0.00 | 30 | 1012.9 |
| 20260502223203 | 61 | 275 | 6.1 | 10.4 | 0.00 | 0.00 | 0.00 | 31 | 1012.9 |
| 20260502222703 | 61 | 249 | 6.1 | 12.2 | 0.00 | 0.00 | 0.00 | 30 | 1012.9 |
| 20260502222203 | 61 | 269 | 6.1 | 12.2 | 0.00 | 0.00 | 0.00 | 30 | 1013.0 |
| 20260502221702 | 61 | 273 | 7.0 | 17.4 | 0.00 | 0.00 | 0.00 | 29 | 1013.0 |
| 20260502221202 | 61 | 258 | 8.7 | 17.4 | 0.00 | 0.00 | 0.00 | 31 | 1013.1 |
| 20260502220703 | 62 | 298 | 7.0 | 17.4 | 0.00 | 0.00 | 0.00 | 30 | 1013.1 |
| 20260502215703 | 61 | 277 | 7.8 | 15.6 | 0.00 | 0.00 | 0.00 | 30 | 1013.0 |
| 20260502215203 | 61 | 267 | 6.1 | 14.8 | 0.00 | 0.00 | 0.00 | 31 | 1013.2 |
| 20260502214703 | 61 | 297 | 7.8 | 13.9 | 0.00 | 0.00 | 0.00 | 31 | 1013.2 |
| 20260502213703 | 62 | 297 | 10.4 | 14.8 | 0.00 | 0.00 | 0.00 | 29 | 1013.4 |
| 20260502212703 | 62 | 248 | 4.3 | 13.0 | 0.00 | 0.00 | 0.00 | 28 | 1013.5 |
| 20260502212203 | 61 | 251 | 5.2 | 17.4 | 0.00 | 0.00 | 0.00 | 30 | 1013.6 |
| 20260502211703 | 61 | 242 | 7.8 | 17.4 | 0.00 | 0.00 | 0.00 | 31 | 1013.6 |
| 20260502210703 | 60 | 251 | 10.4 | 15.6 | 0.00 | 0.00 | 0.00 | 29 | 1013.6 |
| 20260502210203 | 60 | 240 | 1.7 | 13.0 | 0.00 | 0.00 | 0.00 | 28 | 1013.6 |
| 20260502205703 | 61 | 253 | 5.2 | 14.8 | 0.00 | 0.00 | 0.00 | 31 | 1013.8 |
| 20260502205202 | 60 | 254 | 7.8 | 17.4 | 0.00 | 0.00 | 0.00 | 29 | 1013.8 |
| 20260502204703 | 60 | 265 | 10.4 | 17.4 | 0.00 | 0.00 | 0.00 | 31 | 1013.9 |
| 20260502204202 | 60 | 267 | 7.8 | 17.4 | 0.00 | 0.00 | 0.00 | 31 | 1014.0 |
| 20260502203703 | 59 | 220 | 7.8 | 17.4 | 0.00 | 0.00 | 0.00 | 32 | 1014.0 |
| 20260502202703 | 60 | 293 | 5.2 | 13.0 | 0.00 | 0.00 | 0.00 | 30 | 1014.3 |
| 20260502201702 | 60 | 268 | 7.8 | 13.0 | 0.00 | 0.00 | 0.00 | 31 | 1014.4 |
| 20260502201203 | 60 | 321 | 7.0 | 13.9 | 0.00 | 0.00 | 0.00 | 31 | 1014.2 |
| 20260502200704 | 60 | 257 | 8.7 | 17.4 | 0.00 | 0.00 | 0.00 | 29 | 1014.4 |
| 20260502200203 | 60 | 210 | 9.6 | 17.4 | 0.00 | 0.00 | 0.00 | 31 | 1014.4 |
| 20260502195703 | 60 | 245 | 5.2 | 14.8 | 0.00 | 0.00 | 0.00 | 30 | 1014.4 |
| 20260502194703 | 60 | 286 | 5.2 | 10.4 | 0.00 | 0.00 | 0.00 | 30 | 1014.5 |
| 20260502193703 | 61 | 309 | 7.8 | 14.8 | 0.00 | 0.00 | 0.00 | 32 | 1014.9 |
| 20260502193203 | 61 | 209 | 6.1 | 13.9 | 0.00 | 0.00 | 0.00 | 33 | 1014.8 |
| 20260502192703 | 60 | 232 | 8.7 | 13.9 | 0.00 | 0.00 | 0.00 | 32 | 1014.9 |
| 20260502192203 | 59 | 305 | 3.5 | 12.2 | 0.00 | 0.00 | 0.00 | 35 | 1015.1 |
| 20260502191702 | 59 | 329 | 7.0 | 15.6 | 0.00 | 0.00 | 0.00 | 32 | 1015.0 |
| 20260502191203 | 58 | 337 | 7.8 | 15.6 | 0.00 | 0.00 | 0.00 | 32 | 1015.1 |
| 20260502190703 | 59 | 283 | 7.8 | 14.8 | 0.00 | 0.00 | 0.00 | 32 | 1015.2 |
| 20260502190203 | 59 | 256 | 7.8 | 13.9 | 0.00 | 0.00 | 0.00 | 33 | 1015.2 |
| 20260502185703 | 59 | 297 | 8.7 | 13.9 | 0.00 | 0.00 | 0.00 | 31 | 1015.2 |